Time;durP1;ratioP1;P1;durP2;ratioP2;P2;SDS_P1;SDS_P2;PMS_P1;PMS_P2;Temp;Humidity;BMP_temperature;BMP_pressure;BME280_temperature;BME280_humidity;BME280_pressure;Samples;Min_cycle;Max_cycle;Signal;HPM_P1;HPM_P2
2023/01/02 00:00:48;;;;;;;2.55;1.85;;;18.70;58.70;;;;;;5032076;28;20176;-62
2023/01/02 00:03:13;;;;;;;1.85;1.50;;;18.70;58.70;;;;;;5032381;28;20172;-62
2023/01/02 00:05:39;;;;;;;2.58;1.77;;;18.70;58.70;;;;;;5031587;28;20199;-61
2023/01/02 00:08:04;;;;;;;2.00;1.70;;;18.70;58.70;;;;;;5032306;28;20548;-62
2023/01/02 00:10:30;;;;;;;2.55;1.92;;;18.70;58.70;;;;;;5032421;28;20670;-61
2023/01/02 00:12:55;;;;;;;2.20;2.00;;;18.70;58.80;;;;;;5031629;28;20203;-61
2023/01/02 00:15:21;;;;;;;3.17;1.65;;;18.70;58.70;;;;;;5032261;28;20306;-62
2023/01/02 00:17:46;;;;;;;2.10;1.75;;;18.60;58.70;;;;;;5031767;28;20350;-61
2023/01/02 00:20:12;;;;;;;2.47;1.60;;;18.70;58.70;;;;;;5034358;28;20253;-61
2023/01/02 00:22:38;;;;;;;1.98;1.60;;;18.70;58.80;;;;;;5035699;28;20176;-61
2023/01/02 00:25:05;;;;;;;1.92;1.70;;;18.70;59.10;;;;;;5036014;28;20295;-61
2023/01/02 00:27:30;;;;;;;2.90;1.92;;;18.70;58.80;;;;;;5034939;28;20186;-61
2023/01/02 00:29:56;;;;;;;2.05;1.40;;;18.70;58.80;;;;;;5035630;28;20207;-60
2023/01/02 00:32:21;;;;;;;2.15;1.88;;;18.70;58.70;;;;;;5035644;28;20168;-61
2023/01/02 00:34:47;;;;;;;2.13;1.70;;;18.60;58.70;;;;;;5034572;28;20176;-61
2023/01/02 00:37:12;;;;;;;2.70;1.75;;;18.60;58.70;;;;;;5035465;28;20259;-62
2023/01/02 00:39:38;;;;;;;2.50;1.63;;;18.60;58.70;;;;;;5035418;28;20271;-62
2023/01/02 00:42:03;;;;;;;1.67;1.42;;;18.60;58.70;;;;;;5034784;28;20168;-61
2023/01/02 00:44:29;;;;;;;2.03;1.85;;;18.60;58.70;;;;;;5035514;28;20266;-62
2023/01/02 00:46:54;;;;;;;3.85;2.00;;;18.60;58.70;;;;;;5034904;28;20172;-61
2023/01/02 00:49:20;;;;;;;1.88;1.70;;;18.60;58.70;;;;;;5034553;28;20600;-61
2023/01/02 00:51:45;;;;;;;2.70;1.70;;;18.60;58.70;;;;;;5035222;28;20269;-61
2023/01/02 00:54:11;;;;;;;2.30;1.80;;;18.50;58.70;;;;;;5035146;28;20757;-61
2023/01/02 00:56:36;;;;;;;1.75;1.60;;;18.60;58.70;;;;;;5034149;28;20358;-61
2023/01/02 00:59:02;;;;;;;2.25;1.83;;;18.60;58.70;;;;;;5035336;28;20259;-61
2023/01/02 01:01:27;;;;;;;3.97;1.90;;;18.60;58.70;;;;;;5034976;28;20308;-62
2023/01/02 01:03:53;;;;;;;3.25;1.90;;;18.60;58.70;;;;;;5034250;28;20172;-62
2023/01/02 01:06:20;;;;;;;1.73;1.50;;;18.60;58.80;;;;;;5035212;28;20172;-62
2023/01/02 01:08:45;;;;;;;1.83;1.65;;;18.60;58.70;;;;;;5034076;28;20273;-61
2023/01/02 01:11:12;;;;;;;1.73;1.63;;;18.60;58.70;;;;;;5035048;28;20626;-61
2023/01/02 01:13:38;;;;;;;2.17;1.80;;;18.50;58.70;;;;;;5034854;28;20231;-61
2023/01/02 01:16:08;;;;;;;1.75;1.50;;;18.50;58.80;;;;;;5034005;28;20176;-61
2023/01/02 01:18:34;;;;;;;2.42;1.83;;;18.50;58.80;;;;;;5034490;28;20747;-61
2023/01/02 01:21:12;;;;;;;2.65;1.92;;;18.50;58.70;;;;;;5034939;28;20191;-61
2023/01/02 01:23:37;;;;;;;1.98;1.48;;;18.50;58.80;;;;;;5035094;28;20180;-61
2023/01/02 01:26:12;;;;;;;2.40;1.80;;;18.50;58.80;;;;;;5054750;28;20221;-61
2023/01/02 01:28:37;;;;;;;2.00;1.80;;;18.50;58.80;;;;;;5054156;28;20189;-60
2023/01/02 01:31:04;;;;;;;2.83;1.80;;;18.50;58.80;;;;;;5052842;28;20179;-61
2023/01/02 01:33:30;;;;;;;2.00;1.90;;;18.50;58.80;;;;;;5054629;28;20197;-61
2023/01/02 01:36:00;;;;;;;3.03;1.95;;;18.50;58.80;;;;;;5054345;28;20171;-61
2023/01/02 01:38:26;;;;;;;2.65;2.00;;;18.50;58.80;;;;;;5053688;28;20175;-62
2023/01/02 01:40:51;;;;;;;2.08;1.67;;;18.50;58.80;;;;;;5053982;28;20182;-62
2023/01/02 01:43:40;;;;;;;1.90;1.63;;;18.50;58.80;;;;;;5054168;28;20167;-62
2023/01/02 01:46:31;;;;;;;2.95;2.00;;;18.40;58.80;;;;;;5052511;28;20179;-61
2023/01/02 01:49:08;;;;;;;2.75;2.20;;;18.50;58.80;;;;;;5051394;28;20210;-61
2023/01/02 01:51:35;;;;;;;3.08;1.80;;;18.50;59.40;;;;;;5051866;28;20233;-60
2023/01/02 01:54:09;;;;;;;4.35;2.22;;;18.50;58.80;;;;;;5054267;28;20187;-61
2023/01/02 01:56:36;;;;;;;2.03;1.83;;;18.40;58.70;;;;;;5052648;28;20183;-61
2023/01/02 01:59:02;;;;;;;2.15;1.67;;;18.40;58.70;;;;;;5052145;28;20203;-61
2023/01/02 02:01:27;;;;;;;2.38;1.55;;;18.50;58.80;;;;;;5036303;28;20256;-61
2023/01/02 02:03:53;;;;;;;2.63;1.65;;;18.40;58.80;;;;;;5053500;28;20317;-62
2023/01/02 02:06:18;;;;;;;4.28;2.00;;;18.40;58.70;;;;;;5053334;28;20585;-62
2023/01/02 02:09:15;;;;;;;1.80;1.55;;;18.40;58.70;;;;;;5052407;28;20171;-61
2023/01/02 02:11:41;;;;;;;2.38;1.67;;;18.40;58.80;;;;;;5052416;28;20202;-61
2023/01/02 02:14:07;;;;;;;2.92;1.70;;;18.40;58.80;;;;;;5052939;28;20658;-61
2023/01/02 02:16:44;;;;;;;2.83;1.90;;;18.40;58.80;;;;;;5053191;28;20621;-61
2023/01/02 02:19:34;;;;;;;3.40;2.08;;;18.40;58.70;;;;;;5051546;28;20194;-61
2023/01/02 02:22:36;;;;;;;2.20;2.00;;;18.40;58.70;;;;;;5053809;28;20174;-61
2023/01/02 02:25:21;;;;;;;2.63;2.05;;;18.40;58.80;;;;;;5052664;28;20707;-60
2023/01/02 02:27:49;;;;;;;2.40;1.95;;;18.40;58.80;;;;;;5052632;28;20602;-61
2023/01/02 02:30:19;;;;;;;2.05;1.70;;;18.40;58.80;;;;;;5053409;28;20269;-61
2023/01/02 02:33:00;;;;;;;2.88;1.90;;;18.40;58.80;;;;;;5053195;28;20179;-61
2023/01/02 02:35:29;;;;;;;2.70;1.60;;;18.40;58.80;;;;;;5051325;28;20179;-62
2023/01/02 02:38:08;;;;;;;2.70;1.90;;;18.30;58.80;;;;;;5053104;28;20171;-62
2023/01/02 02:40:57;;;;;;;2.20;1.75;;;18.30;58.80;;;;;;5035184;28;20641;-62
2023/01/02 02:43:46;;;;;;;2.10;1.88;;;18.30;58.80;;;;;;5037924;28;20175;-62
2023/01/02 02:46:25;;;;;;;2.22;1.80;;;18.30;58.80;;;;;;5052167;28;20178;-61
2023/01/02 02:49:03;;;;;;;2.33;1.85;;;18.30;58.80;;;;;;5052212;28;20217;-61
2023/01/02 02:51:31;;;;;;;2.78;1.77;;;18.30;58.80;;;;;;5053186;28;20175;-61
2023/01/02 02:54:15;;;;;;;2.67;1.63;;;18.30;58.80;;;;;;5051890;28;20189;-61
2023/01/02 02:56:40;;;;;;;2.13;1.50;;;18.30;58.80;;;;;;5036486;28;20649;-61
2023/01/02 02:59:06;;;;;;;2.05;1.73;;;18.30;58.90;;;;;;5051717;28;20181;-61
2023/01/02 03:01:31;;;;;;;2.80;1.90;;;18.30;58.90;;;;;;5034204;28;20246;-61
2023/01/02 03:03:57;;;;;;;2.55;1.90;;;18.30;58.90;;;;;;5053027;28;20267;-62
2023/01/02 03:06:26;;;;;;;2.88;2.03;;;18.30;58.90;;;;;;5052952;28;20178;-62
2023/01/02 03:09:13;;;;;;;2.28;1.83;;;18.30;59.00;;;;;;5051963;28;20272;-62
2023/01/02 03:12:01;;;;;;;2.78;1.80;;;18.30;59.00;;;;;;5052633;28;20175;-61
2023/01/02 03:14:30;;;;;;;3.70;2.33;;;18.30;59.00;;;;;;5051679;28;20256;-61
2023/01/02 03:17:04;;;;;;;1.92;1.75;;;18.30;59.60;;;;;;5050579;28;20226;-61
2023/01/02 03:19:41;;;;;;;1.98;1.77;;;18.20;58.90;;;;;;5035470;28;20265;-61
2023/01/02 03:22:12;;;;;;;1.77;1.52;;;18.20;59.60;;;;;;5036449;28;20178;-61
2023/01/02 03:24:38;;;;;;;3.20;1.67;;;18.20;59.00;;;;;;5050614;28;20254;-61
2023/01/02 03:27:06;;;;;;;3.15;1.73;;;18.20;59.00;;;;;;5034969;28;20321;-61
2023/01/02 03:29:42;;;;;;;2.78;1.90;;;18.20;59.00;;;;;;5050227;28;20210;-61
2023/01/02 03:32:20;;;;;;;2.72;1.63;;;18.20;59.00;;;;;;5035546;28;20178;-61
2023/01/02 03:34:46;;;;;;;2.38;1.85;;;18.20;59.00;;;;;;5051077;28;20767;-62
2023/01/02 03:37:15;;;;;;;2.65;1.88;;;18.20;59.00;;;;;;5034399;28;20186;-62
2023/01/02 03:39:47;;;;;;;1.92;1.73;;;18.20;59.10;;;;;;5051246;28;20175;-62
2023/01/02 03:42:15;;;;;;;2.67;1.80;;;18.20;59.00;;;;;;5052706;28;20229;-62
2023/01/02 03:44:47;;;;;;;3.75;2.08;;;18.20;59.10;;;;;;5050541;28;20186;-62
2023/01/02 03:47:36;;;;;;;3.00;2.13;;;18.20;59.10;;;;;;5052353;28;20181;-61
2023/01/02 03:50:06;;;;;;;2.15;1.73;;;18.20;59.10;;;;;;5051215;28;20269;-61
2023/01/02 03:52:31;;;;;;;2.60;1.83;;;18.20;59.10;;;;;;5033922;28;20179;-61
2023/01/02 03:54:57;;;;;;;1.83;1.67;;;18.20;59.10;;;;;;5053525;28;20709;-61
2023/01/02 03:57:47;;;;;;;1.80;1.70;;;18.20;59.10;;;;;;5055166;28;20254;-61
2023/01/02 04:00:14;;;;;;;2.88;2.10;;;18.20;59.10;;;;;;5056198;28;20540;-62
2023/01/02 04:02:51;;;;;;;1.95;1.75;;;18.20;59.10;;;;;;5054739;28;20308;-62
2023/01/02 04:05:37;;;;;;;3.35;2.03;;;18.20;59.20;;;;;;5054496;28;20340;-62
2023/01/02 04:08:23;;;;;;;3.50;1.75;;;18.20;59.20;;;;;;5055189;28;20216;-62
2023/01/02 04:10:48;;;;;;;3.13;1.70;;;18.10;59.10;;;;;;5055681;28;20225;-61
2023/01/02 04:13:20;;;;;;;2.30;2.00;;;18.10;59.10;;;;;;5037393;28;20539;-61
2023/01/02 04:15:46;;;;;;;5.32;1.98;;;18.10;59.10;;;;;;5054505;28;20179;-61
2023/01/02 04:18:18;;;;;;;2.85;1.80;;;18.10;59.20;;;;;;5054568;28;20229;-62
2023/01/02 04:20:46;;;;;;;3.03;1.95;;;18.10;59.10;;;;;;5054948;28;20179;-61
2023/01/02 04:23:14;;;;;;;3.17;2.17;;;18.10;59.20;;;;;;5038385;28;20254;-61
2023/01/02 04:25:43;;;;;;;3.42;1.90;;;18.10;59.20;;;;;;5037234;28;20229;-61
2023/01/02 04:28:13;;;;;;;2.53;1.70;;;18.10;59.20;;;;;;5054480;28;20633;-61
2023/01/02 04:30:41;;;;;;;1.80;1.70;;;18.10;59.20;;;;;;5038024;28;20214;-61
2023/01/02 04:33:08;;;;;;;2.65;1.90;;;18.10;59.20;;;;;;5053850;28;20175;-61
2023/01/02 04:35:33;;;;;;;4.45;1.75;;;18.10;59.20;;;;;;5037641;28;20179;-61
2023/01/02 04:38:08;;;;;;;3.58;1.80;;;18.10;59.20;;;;;;5054211;28;20644;-62
2023/01/02 04:40:37;;;;;;;3.17;1.60;;;18.10;59.20;;;;;;5054770;28;20166;-62
2023/01/02 04:43:05;;;;;;;3.05;1.90;;;18.10;59.20;;;;;;5054079;28;20613;-62
2023/01/02 04:45:30;;;;;;;4.03;1.90;;;18.10;59.20;;;;;;5037436;28;20561;-62
2023/01/02 04:47:56;;;;;;;4.25;2.10;;;18.00;59.20;;;;;;5054315;28;20178;-61
2023/01/02 04:50:21;;;;;;;2.78;1.77;;;18.10;59.20;;;;;;5055116;28;20720;-61
2023/01/02 04:52:47;;;;;;;3.25;2.22;;;18.10;59.20;;;;;;5054963;28;20262;-61
2023/01/02 04:55:12;;;;;;;2.72;2.08;;;18.00;59.20;;;;;;5054680;28;20254;-61
2023/01/02 04:57:38;;;;;;;3.85;1.90;;;18.10;60.00;;;;;;5055044;28;20167;-61
2023/01/02 05:00:05;;;;;;;3.30;1.70;;;18.10;59.30;;;;;;5055252;28;20186;-61
2023/01/02 05:02:35;;;;;;;3.33;1.77;;;18.10;59.40;;;;;;5054271;28;20171;-61
2023/01/02 05:05:00;;;;;;;4.60;2.13;;;18.10;59.30;;;;;;5054772;28;20680;-61
2023/01/02 05:07:26;;;;;;;2.50;1.63;;;18.10;59.30;;;;;;5054811;28;20217;-61
2023/01/02 05:09:51;;;;;;;2.60;1.75;;;18.10;59.30;;;;;;5053955;28;20215;-61
2023/01/02 05:12:17;;;;;;;2.00;1.80;;;18.00;59.30;;;;;;5055001;28;20646;-60
2023/01/02 05:14:42;;;;;;;2.80;2.13;;;18.00;59.30;;;;;;5054224;28;20536;-60
2023/01/02 05:17:08;;;;;;;1.90;1.80;;;18.00;59.30;;;;;;5054039;28;20218;-61
2023/01/02 05:19:33;;;;;;;2.25;2.00;;;18.00;59.30;;;;;;5055055;28;20178;-61
2023/01/02 05:24:43;;;;;;;2.67;1.75;;;18.00;59.30;;;;;;5054354;28;20194;-61
2023/01/02 05:27:08;;;;;;;5.03;2.47;;;18.00;59.30;;;;;;5054735;28;20638;-61
2023/01/02 05:29:34;;;;;;;3.00;2.00;;;18.00;59.30;;;;;;5053541;28;20345;-61
2023/01/02 05:31:59;;;;;;;3.28;2.15;;;18.00;59.40;;;;;;5054705;28;20182;-61
2023/01/02 05:34:25;;;;;;;3.75;2.20;;;18.00;59.30;;;;;;5054364;28;20225;-61
2023/01/02 05:36:50;;;;;;;3.03;2.00;;;18.00;59.40;;;;;;5053402;28;20198;-62
2023/01/02 05:39:16;;;;;;;2.95;1.90;;;18.00;59.40;;;;;;5054440;28;20707;-62
2023/01/02 05:41:41;;;;;;;2.65;1.70;;;18.00;59.40;;;;;;5054204;28;20641;-62
2023/01/02 05:44:08;;;;;;;2.38;1.85;;;18.00;59.40;;;;;;5053478;28;20637;-61
2023/01/02 05:46:34;;;;;;;3.10;2.25;;;18.00;59.40;;;;;;5053937;28;20191;-62
2023/01/02 05:49:02;;;;;;;2.67;1.90;;;18.00;59.40;;;;;;5053990;28;20195;-61
2023/01/02 05:51:28;;;;;;;3.72;2.58;;;18.00;59.40;;;;;;5053592;28;20248;-61
2023/01/02 05:53:53;;;;;;;3.55;2.05;;;17.90;59.40;;;;;;5053887;28;20171;-61
2023/01/02 05:56:20;;;;;;;3.15;2.25;;;18.00;59.40;;;;;;5054331;28;20172;-61
2023/01/02 05:58:46;;;;;;;3.40;2.13;;;18.00;59.40;;;;;;5053070;28;20237;-61
2023/01/02 06:01:17;;;;;;;4.22;2.15;;;18.00;59.40;;;;;;5053987;28;20176;-61
2023/01/02 06:03:46;;;;;;;1.90;1.80;;;17.90;59.30;;;;;;5053524;28;20522;-61
2023/01/02 06:06:11;;;;;;;2.60;1.70;;;17.90;59.40;;;;;;5053366;28;20175;-62
2023/01/02 06:08:37;;;;;;;3.13;2.00;;;18.00;59.40;;;;;;5053490;28;20633;-61
2023/01/02 06:11:06;;;;;;;2.58;1.80;;;17.90;59.30;;;;;;5053578;28;20182;-61
2023/01/02 06:13:32;;;;;;;2.83;2.05;;;17.90;59.40;;;;;;5052762;28;20186;-61
2023/01/02 06:15:58;;;;;;;3.22;1.90;;;17.90;59.40;;;;;;5053492;28;20211;-61
2023/01/02 06:18:24;;;;;;;2.45;1.48;;;17.90;59.30;;;;;;5052325;28;20230;-61
2023/01/02 06:20:49;;;;;;;2.90;2.05;;;17.90;59.40;;;;;;5053196;28;20167;-61
2023/01/02 06:23:15;;;;;;;3.08;2.08;;;17.90;59.40;;;;;;5053429;28;20189;-61
2023/01/02 06:25:40;;;;;;;2.65;1.98;;;17.90;59.40;;;;;;5052633;28;20266;-60
2023/01/02 06:28:06;;;;;;;2.28;1.67;;;17.90;59.40;;;;;;5053430;28;20171;-61
2023/01/02 06:30:31;;;;;;;2.55;1.95;;;17.90;59.40;;;;;;5053059;28;20672;-61
2023/01/02 06:32:57;;;;;;;2.50;2.10;;;17.90;59.40;;;;;;5052660;28;20167;-61
2023/01/02 06:35:22;;;;;;;2.30;2.10;;;17.90;59.40;;;;;;5053184;28;20178;-62
2023/01/02 06:37:48;;;;;;;2.88;1.92;;;17.90;59.40;;;;;;5052961;28;20186;-62
2023/01/02 06:40:13;;;;;;;3.40;2.10;;;17.90;59.40;;;;;;5052576;28;20171;-62
2023/01/02 06:42:39;;;;;;;2.00;1.75;;;17.90;59.40;;;;;;5052829;28;20541;-62
2023/01/02 06:45:05;;;;;;;2.65;1.80;;;17.90;59.40;;;;;;5053148;28;20258;-62
2023/01/02 06:47:30;;;;;;;1.98;1.77;;;17.90;59.40;;;;;;5051972;28;20175;-62
2023/01/02 06:49:56;;;;;;;2.72;1.95;;;17.90;59.40;;;;;;5053185;28;20221;-61
2023/01/02 06:52:22;;;;;;;2.30;1.98;;;17.80;59.30;;;;;;5053301;28;20168;-61
2023/01/02 06:54:47;;;;;;;2.08;1.88;;;17.90;59.40;;;;;;5051881;28;20179;-61
2023/01/02 06:57:13;;;;;;;3.78;2.08;;;17.80;59.40;;;;;;5053075;28;20178;-61
2023/01/02 06:59:38;;;;;;;2.25;1.95;;;17.80;59.40;;;;;;5052594;28;20225;-61
2023/01/02 07:02:04;;;;;;;1.85;1.50;;;17.80;59.40;;;;;;5052177;28;20258;-61
2023/01/02 07:04:30;;;;;;;3.33;2.13;;;17.80;59.50;;;;;;5052901;28;20188;-62
2023/01/02 07:06:56;;;;;;;4.10;2.17;;;17.80;59.40;;;;;;5052974;28;20172;-62
2023/01/02 07:09:21;;;;;;;3.95;2.10;;;17.80;59.40;;;;;;5051981;28;20672;-61
2023/01/02 07:11:47;;;;;;;1.92;1.70;;;17.80;59.40;;;;;;5052553;28;20174;-61
2023/01/02 07:14:12;;;;;;;1.73;1.50;;;17.80;59.40;;;;;;5052934;28;20262;-61
2023/01/02 07:16:38;;;;;;;2.63;1.90;;;17.80;59.30;;;;;;5051600;28;20267;-60
2023/01/02 07:19:03;;;;;;;1.73;1.63;;;17.90;59.30;;;;;;5052952;28;20321;-61
2023/01/02 07:21:29;;;;;;;1.73;1.63;;;17.80;59.30;;;;;;5052466;28;20181;-61
2023/01/02 07:23:54;;;;;;;3.28;1.85;;;17.80;59.30;;;;;;5052468;28;20262;-61
2023/01/02 07:26:20;;;;;;;1.92;1.42;;;17.80;59.20;;;;;;5052747;28;20171;-60
2023/01/02 07:28:46;;;;;;;2.22;1.42;;;17.80;59.20;;;;;;5053819;28;20543;-60
2023/01/02 07:31:16;;;;;;;2.03;1.65;;;17.80;59.20;;;;;;5056719;28;20715;-61
2023/01/02 07:33:41;;;;;;;1.98;1.50;;;17.80;59.20;;;;;;5056573;28;20257;-61
2023/01/02 07:36:09;;;;;;;1.80;1.60;;;17.80;59.20;;;;;;5056153;28;20641;-62
2023/01/02 07:38:37;;;;;;;1.58;1.48;;;17.80;59.20;;;;;;5055158;28;20206;-62
2023/01/02 07:41:02;;;;;;;1.85;1.50;;;17.80;59.20;;;;;;5056840;28;20612;-62
2023/01/02 07:43:28;;;;;;;2.20;1.50;;;17.80;59.20;;;;;;5055846;28;20258;-62
2023/01/02 07:45:53;;;;;;;2.53;1.45;;;17.80;59.20;;;;;;5056226;28;20175;-61
2023/01/02 07:48:19;;;;;;;2.38;1.80;;;17.80;59.10;;;;;;5056678;28;20174;-62
2023/01/02 07:50:45;;;;;;;2.28;1.30;;;17.80;59.10;;;;;;5055403;28;20210;-66
2023/01/02 07:53:10;;;;;;;2.53;1.95;;;17.80;59.10;;;;;;5056457;28;20218;-77
2023/01/02 07:55:36;;;;;;;2.22;1.30;;;17.80;59.40;;;;;;5056120;28;20183;-76
2023/01/02 07:58:01;;;;;;;2.40;1.55;;;17.80;59.30;;;;;;5055487;28;20192;-74
2023/01/02 08:00:27;;;;;;;2.75;1.40;;;17.70;59.40;;;;;;5056166;28;20266;-75
2023/01/02 08:02:53;;;;;;;1.48;1.20;;;17.80;59.40;;;;;;5055941;28;20175;-75
2023/01/02 08:05:20;;;;;;;1.60;1.50;;;17.80;59.30;;;;;;5055644;28;20179;-74
2023/01/02 08:07:45;;;;;;;2.17;1.30;;;17.80;59.20;;;;;;5055861;28;20599;-75
2023/01/02 08:10:11;;;;;;;2.17;1.30;;;17.80;59.20;;;;;;5056040;28;20254;-76
2023/01/02 08:12:36;;;;;;;2.25;1.00;;;17.80;59.30;;;;;;5054949;28;20266;-75
2023/01/02 08:15:02;;;;;;;2.05;1.70;;;17.80;59.20;;;;;;5055844;28;20185;-71
2023/01/02 08:17:29;;;;;;;2.17;1.20;;;17.80;59.40;;;;;;5055890;28;20576;-62
2023/01/02 08:19:55;;;;;;;3.55;1.55;;;17.80;59.50;;;;;;5055188;28;20542;-67
2023/01/02 08:22:20;;;;;;;1.38;1.25;;;17.80;59.50;;;;;;5055908;28;20629;-67
2023/01/02 08:24:46;;;;;;;3.10;1.33;;;17.80;59.60;;;;;;5055316;28;20210;-67
2023/01/02 08:27:12;;;;;;;2.70;1.67;;;17.80;59.60;;;;;;5055458;28;20254;-66
2023/01/02 08:29:37;;;;;;;1.27;1.00;;;17.70;59.40;;;;;;5055202;28;20278;-66
2023/01/02 08:32:03;;;;;;;1.45;1.35;;;17.70;59.40;;;;;;5055076;28;20175;-66
2023/01/02 08:34:28;;;;;;;2.35;1.30;;;17.70;59.40;;;;;;5055824;28;20179;-66
2023/01/02 08:36:54;;;;;;;1.27;1.17;;;17.70;59.40;;;;;;5055244;28;20194;-67
2023/01/02 08:39:19;;;;;;;3.40;1.40;;;17.70;59.50;;;;;;5054515;28;20638;-67
2023/01/02 08:41:45;;;;;;;1.42;1.30;;;17.70;59.50;;;;;;5055015;28;20221;-66
2023/01/02 08:44:10;;;;;;;1.83;1.70;;;17.70;59.50;;;;;;5055326;28;20175;-67
2023/01/02 08:46:36;;;;;;;2.75;1.48;;;17.70;59.50;;;;;;5054616;28;20510;-66
2023/01/02 08:49:02;;;;;;;2.03;1.10;;;17.70;59.50;;;;;;5055354;28;20209;-66
2023/01/02 08:51:27;;;;;;;1.90;1.67;;;17.70;59.50;;;;;;5055459;28;20580;-66
2023/01/02 08:53:53;;;;;;;3.13;1.30;;;17.70;59.50;;;;;;5054199;28;20175;-66
2023/01/02 08:56:23;;;;;;;2.22;1.33;;;17.70;59.50;;;;;;5055270;28;20182;-66
2023/01/02 08:59:05;;;;;;;1.58;1.10;;;17.60;59.50;;;;;;5054790;28;20265;-66
2023/01/02 09:01:31;;;;;;;1.77;1.10;;;17.70;59.60;;;;;;5054446;28;20183;-67
2023/01/02 09:03:57;;;;;;;1.63;1.50;;;17.60;59.50;;;;;;5055268;28;20224;-66
2023/01/02 09:06:24;;;;;;;2.67;1.23;;;17.60;59.50;;;;;;5055111;28;20179;-66
2023/01/02 09:08:51;;;;;;;1.70;1.23;;;17.60;59.50;;;;;;5053834;28;20656;-66
2023/01/02 09:11:19;;;;;;;2.40;1.30;;;17.60;59.60;;;;;;5054887;28;20176;-66
2023/01/02 09:13:45;;;;;;;1.63;1.17;;;17.60;59.60;;;;;;5054736;28;20273;-66
2023/01/02 09:16:10;;;;;;;1.35;1.25;;;17.60;59.60;;;;;;5053999;28;20184;-67
2023/01/02 09:18:36;;;;;;;2.05;1.17;;;17.60;59.60;;;;;;5054249;28;20227;-67
2023/01/02 09:21:02;;;;;;;1.17;1.10;;;17.60;59.60;;;;;;5054687;28;20171;-67
2023/01/02 09:23:28;;;;;;;1.33;1.08;;;17.60;59.60;;;;;;5054392;28;20226;-66
2023/01/02 09:26:01;;;;;;;1.23;1.13;;;17.60;59.70;;;;;;5054199;28;20544;-66
2023/01/02 09:28:27;;;;;;;2.92;1.20;;;17.60;59.60;;;;;;5054101;28;20193;-66
2023/01/02 09:30:53;;;;;;;1.25;1.15;;;17.60;60.40;;;;;;5054369;28;20298;-66
2023/01/02 09:33:19;;;;;;;1.10;1.08;;;17.60;59.60;;;;;;5054671;28;20646;-67
2023/01/02 09:35:44;;;;;;;1.20;1.13;;;17.60;59.60;;;;;;5053476;28;20278;-66
2023/01/02 09:38:10;;;;;;;1.73;1.00;;;17.60;59.60;;;;;;5054567;28;20175;-67
2023/01/02 09:40:48;;;;;;;2.38;1.13;;;17.50;59.50;;;;;;5054326;28;20580;-66
2023/01/02 09:43:14;;;;;;;2.03;1.02;;;17.60;59.60;;;;;;5036447;28;20179;-67
2023/01/02 09:45:43;;;;;;;2.35;1.05;;;17.60;59.60;;;;;;5052750;28;20637;-64
2023/01/02 09:48:16;;;;;;;3.55;1.52;;;17.50;59.80;;;;;;5036861;28;20179;-65
2023/01/02 09:50:42;;;;;;;1.48;1.20;;;17.60;59.80;;;;;;5052912;28;20238;-66
2023/01/02 09:53:08;;;;;;;2.53;1.08;;;17.50;59.70;;;;;;5053393;28;20222;-63
2023/01/02 09:55:41;;;;;;;2.63;1.30;;;17.60;59.70;;;;;;5053858;28;20257;-65
2023/01/02 09:58:33;;;;;;;2.13;1.27;;;17.50;59.60;;;;;;5053363;28;20179;-65
2023/01/02 10:00:58;;;;;;;2.60;1.10;;;17.60;59.60;;;;;;5053797;28;20214;-65
2023/01/02 10:03:41;;;;;;;1.00;0.90;;;17.60;59.50;;;;;;5051921;28;20210;-65
2023/01/02 10:06:21;;;;;;;1.45;1.00;;;17.70;59.50;;;;;;5053764;28;20536;-64
2023/01/02 10:08:56;;;;;;;3.33;1.00;;;17.70;59.30;;;;;;5053496;28;20174;-65
2023/01/02 10:11:39;;;;;;;1.45;1.10;;;17.70;59.20;;;;;;5052938;28;20183;-66
2023/01/02 10:14:32;;;;;;;1.83;1.00;;;17.70;59.20;;;;;;5052808;28;20171;-68
2023/01/02 10:16:58;;;;;;;1.15;0.73;;;17.70;59.20;;;;;;5038768;28;20294;-67
2023/01/02 10:19:40;;;;;;;0.80;0.80;;;17.70;59.10;;;;;;5051657;28;20650;-68
2023/01/02 10:22:08;;;;;;;1.27;1.17;;;17.70;59.10;;;;;;5052246;28;20193;-68
2023/01/02 10:24:36;;;;;;;1.35;0.90;;;17.80;59.20;;;;;;5052665;28;20175;-67
2023/01/02 10:27:02;;;;;;;1.20;0.90;;;17.70;59.10;;;;;;5052875;28;20265;-68
2023/01/02 10:29:33;;;;;;;1.58;1.00;;;17.80;59.20;;;;;;5051572;28;20677;-67
2023/01/02 10:32:00;;;;;;;0.98;0.98;;;17.80;59.20;;;;;;5051301;28;20174;-67
2023/01/02 10:34:32;;;;;;;1.30;1.00;;;17.70;59.10;;;;;;5052049;28;20227;-66
2023/01/02 10:36:57;;;;;;;1.30;1.02;;;17.80;59.10;;;;;;5052154;28;20688;-66
2023/01/02 10:39:24;;;;;;;0.50;0.50;;;17.80;59.10;;;;;;5051346;28;20262;-67
2023/01/02 10:41:51;;;;;;;1.45;0.80;;;17.80;59.10;;;;;;5053062;28;20189;-67
2023/01/02 10:44:25;;;;;;;1.65;0.93;;;17.80;59.10;;;;;;5053168;28;20175;-67
2023/01/02 10:46:51;;;;;;;0.95;0.80;;;17.80;59.10;;;;;;5052108;28;20190;-64
2023/01/02 10:49:16;;;;;;;1.02;0.80;;;17.80;59.00;;;;;;5053072;28;20600;-65
2023/01/02 10:51:47;;;;;;;2.65;1.13;;;17.80;59.00;;;;;;5052910;28;20213;-65
2023/01/02 10:54:12;;;;;;;2.22;0.80;;;17.80;59.00;;;;;;5052388;28;20233;-66
2023/01/02 10:56:38;;;;;;;1.73;1.20;;;17.80;59.00;;;;;;5052759;28;20179;-66
2023/01/02 10:59:21;;;;;;;1.33;0.73;;;17.80;59.00;;;;;;5051883;28;20245;-64
2023/01/02 11:01:57;;;;;;;1.25;0.85;;;17.80;58.90;;;;;;5035416;28;20182;-65
2023/01/02 11:04:24;;;;;;;0.95;0.70;;;17.80;59.00;;;;;;5052701;28;20232;-65
2023/01/02 11:06:52;;;;;;;0.90;0.90;;;17.80;59.00;;;;;;5051874;28;20241;-62
2023/01/02 11:09:24;;;;;;;3.60;0.90;;;17.80;59.10;;;;;;5052665;28;20215;-66
2023/01/02 11:11:54;;;;;;;0.90;0.90;;;17.90;59.30;;;;;;5052077;28;20179;-66
2023/01/02 11:14:27;;;;;;;1.08;0.98;;;17.90;59.20;;;;;;5052050;28;20182;-66
2023/01/02 11:16:53;;;;;;;1.13;0.73;;;17.90;59.20;;;;;;5052262;28;20182;-65
2023/01/02 11:19:20;;;;;;;2.42;0.88;;;17.90;59.20;;;;;;5051578;28;20179;-66
2023/01/02 11:21:47;;;;;;;2.55;1.10;;;17.90;59.20;;;;;;5051631;28;20635;-66
2023/01/02 11:24:18;;;;;;;1.92;0.80;;;17.90;59.20;;;;;;5052637;28;20254;-66
2023/01/02 11:26:47;;;;;;;0.90;0.70;;;17.90;59.20;;;;;;5052179;28;20642;-65
2023/01/02 11:29:26;;;;;;;2.38;1.10;;;17.90;59.20;;;;;;5051718;28;20260;-65
2023/01/02 11:31:55;;;;;;;1.63;1.00;;;17.90;59.20;;;;;;5051163;28;20178;-66
2023/01/02 11:34:22;;;;;;;2.35;0.77;;;17.90;59.10;;;;;;5052659;28;20171;-66
2023/01/02 11:37:11;;;;;;;1.33;0.80;;;17.90;59.20;;;;;;5051487;28;20179;-63
2023/01/02 11:39:37;;;;;;;1.98;0.95;;;17.90;59.10;;;;;;5049130;28;20183;-63
2023/01/02 11:45:09;;;;;;;2.38;0.90;;;17.90;59.50;;;;;;5051587;28;20261;-64
2023/01/02 11:47:36;;;;;;;0.80;0.77;;;17.90;59.20;;;;;;5051831;28;20175;-64
2023/01/02 11:50:02;;;;;;;2.10;0.90;;;17.80;59.20;;;;;;5051047;28;20302;-61
2023/01/02 11:52:56;;;;;;;1.80;0.70;;;17.80;59.50;;;;;;5053495;28;20198;-62
2023/01/02 11:56:00;;;;;;;2.72;1.17;;;17.80;59.70;;;;;;5051401;28;20183;-65
2023/01/02 11:58:43;;;;;;;3.00;0.82;;;17.80;59.60;;;;;;5052589;28;20224;-67
2023/01/02 12:01:11;;;;;;;3.80;1.00;;;17.80;59.90;;;;;;5036941;28;20182;-64
2023/01/02 12:03:36;;;;;;;0.73;0.73;;;17.70;59.70;;;;;;5050214;28;20171;-63
2023/01/02 12:06:13;;;;;;;1.70;1.00;;;17.80;59.60;;;;;;5034402;28;20178;-63
2023/01/02 12:08:51;;;;;;;0.80;0.80;;;17.80;59.50;;;;;;5051128;28;20543;-64
2023/01/02 12:11:30;;;;;;;0.88;0.70;;;17.80;59.40;;;;;;5051726;28;20191;-64
2023/01/02 12:14:16;;;;;;;0.85;0.60;;;17.80;59.40;;;;;;5050649;28;20171;-64
2023/01/02 12:17:06;;;;;;;1.50;0.80;;;17.80;59.40;;;;;;5054018;28;20183;-64
2023/01/02 12:19:32;;;;;;;0.90;0.70;;;17.80;59.50;;;;;;5054410;28;20527;-64
2023/01/02 12:22:55;;;;;;;3.83;1.05;;;17.80;59.50;;;;;;5056034;28;20174;-64
2023/01/02 12:25:35;;;;;;;1.25;0.80;;;17.80;59.60;;;;;;5032906;28;20176;-64
2023/01/02 12:28:03;;;;;;;1.65;1.00;;;17.80;59.50;;;;;;5033678;28;20259;-64
2023/01/02 12:30:31;;;;;;;2.80;0.80;;;17.80;59.60;;;;;;5046200;28;20681;-65
2023/01/02 12:33:06;;;;;;;10.98;1.30;;;17.80;59.60;;;;;;5055000;28;20186;-64
2023/01/02 12:35:43;;;;;;;3.50;0.85;;;17.80;59.60;;;;;;5054329;28;20270;-64
2023/01/02 12:38:10;;;;;;;2.40;1.38;;;17.80;59.30;;;;;;5054702;28;20182;-65
2023/01/02 12:40:48;;;;;;;1.83;0.80;;;17.80;59.30;;;;;;5054039;28;20286;-65
2023/01/02 12:43:47;;;;;;;2.72;0.90;;;17.70;59.40;;;;;;5055298;28;20189;-65
2023/01/02 12:47:00;;;;;;;1.85;0.90;;;17.80;59.40;;;;;;5054724;28;20171;-65
2023/01/02 12:49:26;;;;;;;6.45;1.15;;;17.70;59.40;;;;;;5035191;28;20252;-65
2023/01/02 12:52:17;;;;;;;1.92;0.75;;;17.70;59.30;;;;;;5055055;28;20175;-65
2023/01/02 12:55:00;;;;;;;3.83;1.15;;;17.70;59.30;;;;;;5055159;28;20174;-64
2023/01/02 12:57:45;;;;;;;1.23;0.73;;;17.70;59.20;;;;;;5054054;28;20179;-64
2023/01/02 13:00:16;;;;;;;1.48;0.77;;;17.70;59.20;;;;;;5054365;28;20629;-64
2023/01/02 13:03:46;;;;;;;3.00;0.90;;;17.70;59.20;;;;;;5055101;28;20183;-63
2023/01/02 13:06:27;;;;;;;1.63;0.60;;;17.70;59.10;;;;;;5003830;28;20179;-64
2023/01/02 13:09:00;;;;;;;2.97;1.02;;;17.70;59.10;;;;;;5037254;28;20179;-64